createdAt,value
2023-03-28T00:01:14.043Z,5.87
2023-03-28T00:03:41.126Z,5.72
2023-03-28T00:06:13.834Z,5.70
2023-03-28T00:08:41.572Z,5.71
2023-03-28T00:11:18.641Z,5.68
2023-03-28T00:14:02.116Z,5.62
2023-03-28T00:16:35.500Z,5.71
2023-03-28T00:19:06.419Z,5.54
2023-03-28T00:21:46.752Z,5.49
2023-03-28T00:24:21.437Z,5.64
2023-03-28T00:26:54.387Z,5.60
2023-03-28T00:29:23.040Z,5.62
2023-03-28T00:31:55.618Z,5.46
2023-03-28T00:34:25.789Z,5.45
2023-03-28T00:36:55.056Z,5.45
2023-03-28T00:39:22.216Z,5.44
2023-03-28T00:41:49.448Z,5.49
2023-03-28T00:44:38.304Z,5.44
2023-03-28T00:47:06.363Z,5.47
2023-03-28T00:49:35.772Z,5.46
2023-03-28T00:52:07.594Z,5.50
2023-03-28T00:54:40.295Z,5.30
2023-03-28T00:57:12.916Z,5.31
2023-03-28T00:59:42.080Z,5.35
2023-03-28T01:02:09.017Z,5.25
2023-03-28T01:04:59.431Z,5.15
2023-03-28T01:07:40.901Z,5.33
2023-03-28T01:10:09.194Z,5.23
2023-03-28T01:12:36.875Z,5.14
2023-03-28T01:15:04.692Z,5.13
2023-03-28T01:17:34.268Z,5.18
2023-03-28T01:20:53.597Z,5.16
2023-03-28T01:23:32.418Z,5.29
2023-03-28T01:26:17.694Z,5.15
2023-03-28T01:29:23.701Z,4.96
2023-03-28T01:32:22.677Z,5.14
2023-03-28T01:35:45.293Z,4.98
2023-03-28T01:38:44.819Z,4.73
2023-03-28T01:41:42.418Z,4.85
2023-03-28T01:44:36.990Z,4.93
2023-03-28T01:47:16.806Z,4.93
2023-03-28T01:50:10.785Z,4.85
2023-03-28T01:52:59.659Z,4.86
2023-03-28T01:56:12.119Z,4.92
2023-03-28T01:59:15.819Z,4.79
2023-03-28T02:01:50.471Z,4.68
2023-03-28T02:04:21.467Z,4.79
2023-03-28T02:06:50.199Z,4.84
2023-03-28T02:09:24.747Z,4.77
2023-03-28T02:12:02.094Z,4.65
2023-03-28T02:14:38.698Z,4.62
2023-03-28T02:17:15.699Z,4.80
2023-03-28T02:19:59.755Z,4.66
2023-03-28T02:22:36.483Z,4.76
2023-03-28T02:25:04.154Z,4.78
2023-03-28T02:27:32.873Z,4.63
2023-03-28T02:30:00.293Z,4.66
2023-03-28T02:32:33.871Z,4.68
2023-03-28T02:35:04.445Z,4.74
2023-03-28T02:37:49.882Z,4.58
2023-03-28T02:40:41.337Z,4.46
2023-03-28T02:43:26.284Z,4.31
2023-03-28T02:46:12.614Z,4.39
2023-03-28T02:49:12.853Z,4.45
2023-03-28T02:52:00.168Z,4.32
2023-03-28T02:54:51.697Z,4.34
2023-03-28T02:57:31.463Z,4.33
2023-03-28T03:00:12.410Z,4.30
2023-03-28T03:02:51.700Z,4.27
2023-03-28T03:05:20.675Z,4.27
2023-03-28T03:07:49.826Z,4.18
2023-03-28T03:10:17.861Z,4.25
2023-03-28T03:12:45.390Z,4.20
2023-03-28T03:15:12.311Z,4.06
2023-03-28T03:17:41.695Z,3.98
2023-03-28T03:20:09.364Z,4.02
2023-03-28T03:22:43.287Z,4.00
2023-03-28T03:25:14.608Z,4.12
2023-03-28T03:27:41.711Z,4.13
2023-03-28T03:30:10.068Z,3.96
2023-03-28T03:32:38.631Z,4.06
2023-03-28T03:35:11.087Z,4.11
2023-03-28T03:37:38.011Z,3.94
2023-03-28T03:40:05.824Z,4.08
2023-03-28T03:42:37.109Z,4.20
2023-03-28T03:45:04.815Z,4.13
2023-03-28T03:47:32.230Z,4.08
2023-03-28T03:50:02.159Z,4.05
2023-03-28T03:52:28.968Z,3.70
2023-03-28T03:54:55.785Z,3.81
2023-03-28T03:57:25.008Z,4.00
2023-03-28T03:59:57.212Z,3.79
2023-03-28T04:02:24.199Z,3.61
2023-03-28T04:04:54.250Z,3.49
2023-03-28T04:07:21.300Z,3.52
2023-03-28T04:09:50.656Z,3.81
2023-03-28T04:12:18.531Z,3.84
2023-03-28T04:14:48.031Z,3.70
2023-03-28T04:17:16.027Z,3.80
2023-03-28T04:19:46.572Z,3.57
2023-03-28T04:22:13.818Z,3.64
2023-03-28T04:24:41.749Z,3.65
2023-03-28T04:27:10.885Z,3.59
2023-03-28T04:29:39.384Z,3.58
2023-03-28T04:32:12.926Z,3.52
2023-03-28T04:34:39.969Z,3.65
2023-03-28T04:37:06.891Z,3.47
2023-03-28T04:39:37.340Z,3.34
2023-03-28T04:42:08.368Z,3.42
2023-03-28T04:44:35.389Z,3.50
2023-03-28T04:47:02.284Z,3.40
2023-03-28T04:49:29.271Z,3.33
2023-03-28T04:51:58.634Z,3.46
2023-03-28T04:54:25.830Z,3.48
2023-03-28T04:56:55.949Z,3.76
2023-03-28T04:59:23.004Z,3.72
2023-03-28T05:01:52.449Z,3.64
2023-03-28T05:04:26.667Z,3.55
2023-03-28T05:06:56.320Z,3.31
2023-03-28T05:09:26.425Z,3.13
2023-03-28T05:11:53.403Z,3.34
2023-03-28T05:14:20.767Z,3.40
2023-03-28T05:16:47.707Z,3.38
2023-03-28T05:19:14.689Z,3.32
2023-03-28T05:21:41.605Z,3.48
2023-03-28T05:24:13.161Z,3.33
2023-03-28T05:26:40.257Z,3.37
2023-03-28T05:29:09.752Z,3.41
2023-03-28T05:31:39.289Z,3.38
2023-03-28T05:34:11.112Z,3.58
2023-03-28T05:36:38.053Z,3.60
2023-03-28T05:39:05.231Z,3.87
2023-03-28T05:41:32.237Z,4.07
2023-03-28T05:43:59.065Z,3.83
2023-03-28T05:46:26.020Z,3.84
2023-03-28T05:48:52.963Z,3.94
2023-03-28T05:51:20.014Z,3.97
2023-03-28T05:53:49.440Z,4.20
2023-03-28T05:56:16.313Z,4.47
2023-03-28T05:58:43.742Z,4.45
2023-03-28T06:01:13.860Z,4.36
2023-03-28T06:03:42.685Z,4.26
2023-03-28T06:06:09.805Z,4.24
2023-03-28T06:08:39.308Z,4.35
2023-03-28T06:11:06.846Z,4.45
2023-03-28T06:13:34.216Z,4.65
2023-03-28T06:16:01.056Z,4.82
2023-03-28T06:18:32.514Z,4.73
2023-03-28T06:21:02.259Z,4.22
2023-03-28T06:23:31.868Z,4.08
2023-03-28T06:26:02.316Z,4.06
2023-03-28T06:28:31.731Z,4.67
2023-03-28T06:30:59.065Z,5.32
2023-03-28T06:33:26.279Z,6.68
2023-03-28T06:35:53.244Z,7.82
2023-03-28T06:38:23.339Z,8.77
2023-03-28T06:40:55.218Z,9.56
2023-03-28T06:43:24.347Z,9.94
2023-03-28T06:45:56.390Z,10.94
2023-03-28T06:48:33.059Z,12.04
2023-03-28T06:51:01.703Z,11.91
2023-03-28T06:53:29.107Z,13.04
2023-03-28T06:55:59.825Z,13.61
2023-03-28T06:58:28.996Z,13.24
2023-03-28T07:00:59.539Z,12.10
2023-03-28T07:03:30.356Z,11.47
2023-03-28T07:05:57.956Z,12.01
2023-03-28T07:08:25.444Z,13.40
2023-03-28T07:10:52.375Z,14.21
2023-03-28T07:13:19.294Z,15.71
2023-03-28T07:15:46.244Z,16.23
2023-03-28T07:18:13.224Z,16.70
2023-03-28T07:20:41.596Z,15.72
2023-03-28T07:23:08.696Z,15.56
2023-03-28T07:25:38.061Z,16.77
2023-03-28T07:28:04.939Z,17.70
2023-03-28T07:30:33.997Z,18.47
2023-03-28T07:33:12.993Z,17.91
2023-03-28T07:35:45.752Z,16.79
2023-03-28T07:38:14.787Z,15.62
2023-03-28T07:40:41.685Z,13.94
2023-03-28T07:43:10.835Z,13.03
2023-03-28T07:45:40.041Z,13.86
2023-03-28T07:48:07.953Z,16.33
2023-03-28T07:50:36.567Z,17.64
2023-03-28T07:53:05.861Z,18.63
2023-03-28T07:55:39.381Z,17.90
2023-03-28T07:58:15.588Z,17.33
2023-03-28T08:00:45.478Z,18.50
2023-03-28T08:03:16.108Z,20.57
2023-03-28T08:05:51.963Z,21.84
2023-03-28T08:08:20.918Z,21.12
2023-03-28T08:10:54.634Z,21.18
2023-03-28T08:13:21.524Z,21.93
2023-03-28T08:15:55.268Z,22.57
2023-03-28T08:18:25.210Z,23.00
2023-03-28T08:21:03.113Z,22.97
2023-03-28T08:23:30.701Z,23.73
2023-03-28T08:26:06.163Z,23.78
2023-03-28T08:28:37.709Z,24.40
2023-03-28T08:31:16.636Z,25.10
2023-03-28T08:33:52.590Z,24.04
2023-03-28T08:36:25.083Z,24.66
2023-03-28T08:38:53.330Z,25.34
2023-03-28T08:41:57.511Z,25.95
2023-03-28T08:45:08.857Z,25.58
2023-03-28T08:48:00.528Z,25.24
2023-03-28T08:50:34.144Z,26.69
2023-03-28T08:53:02.712Z,27.07
2023-03-28T08:55:43.333Z,27.25
2023-03-28T08:58:23.663Z,27.30
2023-03-28T09:00:54.253Z,27.96
2023-03-28T09:03:25.205Z,26.92
2023-03-28T09:06:02.436Z,27.07
2023-03-28T09:09:13.093Z,27.49
2023-03-28T09:12:15.727Z,27.63
2023-03-28T09:15:07.033Z,24.20
2023-03-28T09:18:03.837Z,23.06
2023-03-28T09:20:41.123Z,21.88
2023-03-28T09:23:42.477Z,23.31
2023-03-28T09:26:26.068Z,25.39
2023-03-28T09:29:08.986Z,23.03
2023-03-28T09:31:46.247Z,20.10
2023-03-28T09:34:22.933Z,19.67
2023-03-28T09:36:55.306Z,22.43
2023-03-28T09:39:38.556Z,24.74
2023-03-28T09:42:27.295Z,26.81
2023-03-28T09:45:12.043Z,28.29
2023-03-28T09:47:39.734Z,25.78
2023-03-28T09:50:13.738Z,26.07
2023-03-28T09:52:41.506Z,23.10
2023-03-28T09:55:27.266Z,20.56
2023-03-28T09:58:09.189Z,19.32
2023-03-28T10:00:47.668Z,18.43
2023-03-28T10:03:32.495Z,17.88
2023-03-28T10:06:18.141Z,17.10
2023-03-28T10:08:45.991Z,16.02
2023-03-28T10:11:15.283Z,16.04
2023-03-28T10:13:56.522Z,15.66
2023-03-28T10:16:32.340Z,15.23
2023-03-28T10:19:02.387Z,14.73
2023-03-28T10:21:32.521Z,14.16
2023-03-28T10:24:07.450Z,13.92
2023-03-28T10:26:39.249Z,14.00
2023-03-28T10:29:12.366Z,13.59
2023-03-28T10:31:40.240Z,13.50
2023-03-28T10:34:28.237Z,14.39
2023-03-28T10:36:56.997Z,15.49
2023-03-28T10:39:28.999Z,16.85
2023-03-28T10:41:58.670Z,15.87
2023-03-28T10:44:37.513Z,15.25
2023-03-28T10:47:13.782Z,14.72
2023-03-28T10:49:52.870Z,13.64
2023-03-28T10:52:22.605Z,13.01
2023-03-28T10:55:23.924Z,12.73
2023-03-28T10:58:18.181Z,11.94
2023-03-28T11:01:04.809Z,12.57
2023-03-28T11:04:41.467Z,12.72
2023-03-28T11:07:17.091Z,12.96
2023-03-28T11:09:56.318Z,13.61
2023-03-28T11:12:54.649Z,15.40
2023-03-28T11:15:57.028Z,15.39
2023-03-28T11:18:46.286Z,15.63
2023-03-28T11:21:31.382Z,15.99
2023-03-28T11:24:19.512Z,15.81
2023-03-28T11:27:31.839Z,15.35
2023-03-28T11:30:15.798Z,14.70
2023-03-28T11:33:02.822Z,13.93
2023-03-28T11:35:41.110Z,13.12
2023-03-28T11:38:39.944Z,12.98
2023-03-28T11:41:15.721Z,12.73
2023-03-28T11:43:58.362Z,12.75
2023-03-28T11:46:38.141Z,12.45
2023-03-28T11:49:26.194Z,12.41
2023-03-28T11:52:35.500Z,12.42
2023-03-28T11:55:06.627Z,12.31
2023-03-28T11:58:03.770Z,12.27
2023-03-28T12:01:08.683Z,11.95
2023-03-28T12:04:10.440Z,12.11
2023-03-28T12:07:03.172Z,11.95
2023-03-28T12:10:19.588Z,11.90
2023-03-28T12:13:01.744Z,12.11
2023-03-28T12:15:45.225Z,11.95
2023-03-28T12:18:41.447Z,11.81
2023-03-28T12:21:34.718Z,11.88
2023-03-28T12:24:15.904Z,11.82
2023-03-28T12:27:25.452Z,11.76
2023-03-28T12:30:07.228Z,11.54
2023-03-28T12:33:14.463Z,11.96
2023-03-28T12:35:50.143Z,12.16
2023-03-28T12:38:40.488Z,11.81
2023-03-28T12:41:19.244Z,11.90
2023-03-28T12:44:24.495Z,11.74
2023-03-28T12:47:17.061Z,11.53
2023-03-28T12:49:52.526Z,11.40
2023-03-28T12:52:37.951Z,11.47
2023-03-28T12:55:17.436Z,11.20
2023-03-28T12:57:46.952Z,11.32
2023-03-28T13:00:32.754Z,11.26
2023-03-28T13:03:40.073Z,11.20
2023-03-28T13:06:30.700Z,11.30
2023-03-28T13:09:31.664Z,11.10
2023-03-28T13:12:20.297Z,11.36
2023-03-28T13:15:06.699Z,11.20
2023-03-28T13:17:37.801Z,11.14
2023-03-28T13:20:26.098Z,10.90
2023-03-28T13:22:58.592Z,10.58
2023-03-28T13:25:32.490Z,10.84
2023-03-28T13:28:24.188Z,10.97
2023-03-28T13:31:18.511Z,10.92
2023-03-28T13:34:01.751Z,11.20
2023-03-28T13:36:34.084Z,11.03
2023-03-28T13:39:27.510Z,11.12
2023-03-28T13:41:58.116Z,11.30
2023-03-28T13:44:39.780Z,11.07
2023-03-28T13:47:14.110Z,11.08
2023-03-28T13:49:53.238Z,11.08
2023-03-28T13:52:23.564Z,11.46
2023-03-28T13:54:59.648Z,11.51
2023-03-28T13:57:29.785Z,11.57
2023-03-28T14:00:06.904Z,11.93
2023-03-28T14:02:47.856Z,12.17
2023-03-28T14:05:27.542Z,12.19
2023-03-28T14:08:14.326Z,12.32
2023-03-28T14:10:46.111Z,12.08
2023-03-28T14:13:19.559Z,12.50
2023-03-28T14:15:46.968Z,12.82
2023-03-28T14:18:34.996Z,12.50
2023-03-28T14:21:02.658Z,12.48
2023-03-28T14:23:42.475Z,12.23
2023-03-28T14:26:19.151Z,12.39
2023-03-28T14:28:47.128Z,12.52
2023-03-28T14:31:31.423Z,12.89
2023-03-28T14:34:16.399Z,12.56
2023-03-28T14:37:00.928Z,12.00
2023-03-28T14:39:34.090Z,11.93
2023-03-28T14:42:08.415Z,12.53
2023-03-28T14:44:41.311Z,12.81
2023-03-28T14:47:14.858Z,12.97
2023-03-28T14:49:42.199Z,13.29
2023-03-28T14:52:25.655Z,13.51
2023-03-28T14:54:53.039Z,13.79
2023-03-28T14:57:22.752Z,13.08
2023-03-28T14:59:52.488Z,13.30
2023-03-28T15:02:39.481Z,12.96
2023-03-28T15:05:10.461Z,12.84
2023-03-28T15:07:42.168Z,13.10
2023-03-28T15:10:18.398Z,13.65
2023-03-28T15:12:47.907Z,13.98
2023-03-28T15:15:24.966Z,13.96
2023-03-28T15:17:59.860Z,13.62
2023-03-28T15:20:37.330Z,13.31
2023-03-28T15:23:12.377Z,14.22
2023-03-28T15:25:39.298Z,14.43
2023-03-28T15:28:10.588Z,14.74
2023-03-28T15:30:43.860Z,14.50
2023-03-28T15:33:26.240Z,14.66
2023-03-28T15:36:32.301Z,13.87
2023-03-28T15:39:17.162Z,13.07
2023-03-28T15:41:48.894Z,12.53
2023-03-28T15:44:39.544Z,12.74
2023-03-28T15:47:21.367Z,12.65
2023-03-28T15:49:50.779Z,12.55
2023-03-28T15:52:25.665Z,12.41
2023-03-28T15:54:56.635Z,12.20
2023-03-28T15:57:30.194Z,12.22
2023-03-28T15:59:58.738Z,12.60
2023-03-28T16:02:37.533Z,12.81
2023-03-28T16:05:17.846Z,13.16
2023-03-28T16:07:52.491Z,13.33
2023-03-28T16:10:33.058Z,12.96
2023-03-28T16:13:08.819Z,12.85
2023-03-28T16:15:41.553Z,12.52
2023-03-28T16:18:09.064Z,12.48
2023-03-28T16:20:43.332Z,12.53
2023-03-28T16:23:14.602Z,12.33
2023-03-28T16:25:49.165Z,12.29
2023-03-28T16:28:21.277Z,12.53
2023-03-28T16:31:03.825Z,12.82
2023-03-28T16:33:37.426Z,12.60
2023-03-28T16:36:05.500Z,12.44
2023-03-28T16:38:41.468Z,12.64
2023-03-28T16:41:12.498Z,12.80
2023-03-28T16:43:42.956Z,12.47
2023-03-28T16:46:13.093Z,11.84
2023-03-28T16:48:42.730Z,11.85
2023-03-28T16:51:10.333Z,11.59
2023-03-28T16:53:45.064Z,11.36
2023-03-28T16:56:18.788Z,11.48
2023-03-28T16:58:53.755Z,11.46
2023-03-28T17:01:30.894Z,11.56
2023-03-28T17:04:04.090Z,11.27
2023-03-28T17:06:37.580Z,10.98
2023-03-28T17:09:10.073Z,11.24
2023-03-28T17:11:37.984Z,11.03
2023-03-28T17:14:11.071Z,10.77
2023-03-28T17:16:40.851Z,10.76
2023-03-28T17:19:13.847Z,10.87
2023-03-28T17:21:41.129Z,10.90
2023-03-28T17:24:11.583Z,10.63
2023-03-28T17:26:41.474Z,10.69
2023-03-28T17:29:12.159Z,10.84
2023-03-28T17:31:41.884Z,10.60
2023-03-28T17:34:10.188Z,10.37
2023-03-28T17:36:37.896Z,10.24
2023-03-28T17:39:04.891Z,10.44
2023-03-28T17:41:32.276Z,10.02
2023-03-28T17:43:59.887Z,10.18
2023-03-28T17:46:29.167Z,10.39
2023-03-28T17:48:56.112Z,9.76
2023-03-28T17:51:23.221Z,9.82
2023-03-28T17:53:53.311Z,9.57
2023-03-28T17:56:24.175Z,9.33
2023-03-28T17:58:53.525Z,9.87
2023-03-28T18:01:23.271Z,10.26
2023-03-28T18:03:50.335Z,10.19
2023-03-28T18:06:19.902Z,10.35
2023-03-28T18:08:47.394Z,10.38
2023-03-28T18:11:20.094Z,10.04
2023-03-28T18:13:50.125Z,10.22
2023-03-28T18:16:19.562Z,10.35
2023-03-28T18:18:49.292Z,10.38
2023-03-28T18:21:20.188Z,10.55
2023-03-28T18:23:49.301Z,10.31
2023-03-28T18:26:17.160Z,10.42
2023-03-28T18:28:45.585Z,10.37
2023-03-28T18:31:18.077Z,10.41
2023-03-28T18:33:46.882Z,10.47
2023-03-28T18:36:15.279Z,10.44
2023-03-28T18:38:46.977Z,10.39
2023-03-28T18:41:17.707Z,10.53
2023-03-28T18:43:46.298Z,10.02
2023-03-28T18:46:16.177Z,9.65
2023-03-28T18:48:47.328Z,9.53
2023-03-28T18:51:14.364Z,9.54
2023-03-28T18:53:45.473Z,9.70
2023-03-28T18:56:17.351Z,9.78
2023-03-28T18:58:47.457Z,9.81
2023-03-28T19:01:19.024Z,9.98
2023-03-28T19:03:48.518Z,9.63
2023-03-28T19:06:17.346Z,9.62
2023-03-28T19:08:45.189Z,9.66
2023-03-28T19:11:17.448Z,9.73
2023-03-28T19:13:46.213Z,9.66
2023-03-28T19:16:21.759Z,9.78
2023-03-28T19:18:48.994Z,9.87
2023-03-28T19:21:19.366Z,9.71
2023-03-28T19:23:49.424Z,9.54
2023-03-28T19:26:19.414Z,9.54
2023-03-28T19:28:48.236Z,9.21
2023-03-28T19:31:17.472Z,9.24
2023-03-28T19:33:45.537Z,9.06
2023-03-28T19:36:14.018Z,9.24
2023-03-28T19:38:42.077Z,9.25
2023-03-28T19:41:23.813Z,9.18
2023-03-28T19:43:52.304Z,9.03
2023-03-28T19:46:33.852Z,8.90
2023-03-28T19:49:06.789Z,8.78
2023-03-28T19:51:36.299Z,8.93
2023-03-28T19:54:07.030Z,8.91
2023-03-28T19:56:35.079Z,8.91
2023-03-28T19:59:03.814Z,8.69
2023-03-28T20:01:32.198Z,8.45
2023-03-28T20:04:02.480Z,8.55
2023-03-28T20:06:31.163Z,8.61
2023-03-28T20:09:02.148Z,8.56
2023-03-28T20:11:34.394Z,8.64
2023-03-28T20:14:02.498Z,8.54
2023-03-28T20:16:33.172Z,8.43
2023-03-28T20:19:01.592Z,8.52
2023-03-28T20:21:30.160Z,8.42
2023-03-28T20:23:59.111Z,8.43
2023-03-28T20:26:28.252Z,8.59
2023-03-28T20:29:00.084Z,8.59
2023-03-28T20:31:31.734Z,8.67
2023-03-28T20:34:01.816Z,8.44
2023-03-28T20:36:28.960Z,8.44
2023-03-28T20:38:56.487Z,8.45
2023-03-28T20:41:24.510Z,8.71
2023-03-28T20:43:53.210Z,8.83
2023-03-28T20:46:23.659Z,8.85
2023-03-28T20:48:56.672Z,8.61
2023-03-28T20:51:23.832Z,8.54
2023-03-28T20:54:02.288Z,8.48
2023-03-28T20:56:31.681Z,8.51
2023-03-28T20:58:59.955Z,8.56
2023-03-28T21:01:32.778Z,8.61
2023-03-28T21:04:01.998Z,8.57
2023-03-28T21:06:34.182Z,8.70
2023-03-28T21:09:07.140Z,8.48
2023-03-28T21:11:37.519Z,8.40
2023-03-28T21:14:10.573Z,8.58
2023-03-28T21:16:40.933Z,8.61
2023-03-28T21:19:10.448Z,8.47
2023-03-28T21:21:37.616Z,8.45
2023-03-28T21:24:07.568Z,8.56
2023-03-28T21:26:34.522Z,8.42
2023-03-28T21:29:01.688Z,8.51
2023-03-28T21:31:29.589Z,8.53
2023-03-28T21:33:59.844Z,8.44
2023-03-28T21:36:28.284Z,8.48
2023-03-28T21:38:58.937Z,8.49
2023-03-28T21:41:28.736Z,8.35
2023-03-28T21:43:56.658Z,8.25
2023-03-28T21:46:24.068Z,8.15
2023-03-28T21:48:53.383Z,7.98
2023-03-28T21:51:20.664Z,8.09
2023-03-28T21:53:50.826Z,8.09
2023-03-28T21:56:21.464Z,7.92
2023-03-28T21:58:48.806Z,7.74
2023-03-28T22:01:18.308Z,7.74
2023-03-28T22:03:49.519Z,7.90
2023-03-28T22:06:18.651Z,7.96
2023-03-28T22:08:51.733Z,7.76
2023-03-28T22:11:30.098Z,7.73
2023-03-28T22:14:04.954Z,7.73
2023-03-28T22:16:40.122Z,7.78
2023-03-28T22:19:09.820Z,7.79
2023-03-28T22:21:37.627Z,7.87
2023-03-28T22:24:10.227Z,7.87
2023-03-28T22:26:37.161Z,7.82
2023-03-28T22:29:05.137Z,7.90
2023-03-28T22:31:32.376Z,7.77
2023-03-28T22:33:59.426Z,7.89
2023-03-28T22:36:29.259Z,7.94
2023-03-28T22:39:03.337Z,7.97
2023-03-28T22:41:33.216Z,7.72
2023-03-28T22:44:00.282Z,7.70
2023-03-28T22:46:30.030Z,7.65
2023-03-28T22:49:00.601Z,7.83
2023-03-28T22:51:28.351Z,7.60
2023-03-28T22:54:01.787Z,7.29
2023-03-28T22:56:31.357Z,7.37
2023-03-28T22:59:01.785Z,7.48
2023-03-28T23:01:28.956Z,7.55
2023-03-28T23:03:58.703Z,7.66
2023-03-28T23:06:27.147Z,7.68
2023-03-28T23:08:54.107Z,7.65
2023-03-28T23:11:21.493Z,7.78
2023-03-28T23:13:48.569Z,7.71
2023-03-28T23:16:15.621Z,7.69
2023-03-28T23:18:43.382Z,7.71
2023-03-28T23:21:13.240Z,7.36
2023-03-28T23:23:46.492Z,7.30
2023-03-28T23:26:14.443Z,7.39
2023-03-28T23:28:41.592Z,7.60
2023-03-28T23:31:12.986Z,7.64
2023-03-28T23:33:40.297Z,7.42
2023-03-28T23:36:10.316Z,7.62
2023-03-28T23:38:40.525Z,7.73
2023-03-28T23:41:08.288Z,7.71
2023-03-28T23:43:35.545Z,7.88
2023-03-28T23:46:05.790Z,7.83
2023-03-28T23:48:32.883Z,7.52
2023-03-28T23:51:02.529Z,7.55
2023-03-28T23:53:30.349Z,7.42
2023-03-28T23:55:57.254Z,7.54
2023-03-28T23:58:24.217Z,7.48
